EW7705 Weather Reports


Display with metric or nautical units.
time (UTC)temp
F
wind
direction
speed
MPH
gust
MPH
rain 1hr
in
rain 24hr
in
rain mn
in
humidity
%
barometer
mb
20190116155047 31 0 0.0 1.0 0.00 0.40 0.29 85 1014.5
20190116154044 31 90 0.0 1.0 0.00 0.40 0.29 83 1014.5
20190116153041 32 0 0.0 2.0 0.01 0.40 0.29 83 1014.5
20190116152037 32 233 0.0 2.0 0.01 0.40 0.29 83 1014.5
20190116151034 32 225 0.0 1.0 0.01 0.40 0.29 83 1014.5
20190116150031 32 186 0.0 2.0 0.01 0.40 0.29 83 1014.5
20190116145028 32 238 0.0 2.0 0.01 0.40 0.29 82 1014.5
20190116144025 32 247 0.0 2.0 0.01 0.40 0.29 82 1014.5
20190116143022 32 235 0.0 2.0 0.00 0.38 0.28 81 1014.5
20190116142019 32 255 1.0 3.0 0.00 0.38 0.28 80 1014.5
20190116141016 32 197 1.0 3.0 0.00 0.38 0.28 80 1014.5
20190116140113 32 240 1.0 3.0 0.00 0.38 0.28 79 1014.5
20190116135110 33 294 0.0 4.0 0.00 0.38 0.28 79 1014.5
20190116134036 33 315 1.0 4.0 0.00 0.38 0.28 79 1014.5
20190116133033 33 210 2.0 5.0 0.00 0.38 0.28 79 1014.5
20190116132030 33 290 2.0 5.0 0.00 0.38 0.28 79 1014.5
20190116131026 33 235 2.0 3.0 0.00 0.38 0.28 79 1014.5
20190116130024 33 233 2.0 5.0 0.00 0.38 0.28 78 1014.5
20190116125020 33 325 1.0 4.0 0.00 0.38 0.28 77 1014.5
20190116124017 33 299 4.0 7.0 0.01 0.38 0.28 77 1014.5
20190116123114 33 278 3.0 8.0 0.01 0.38 0.28 77 1014.5
20190116122112 34 279 3.0 7.0 0.01 0.38 0.28 78 1014.5
20190116121109 33 240 3.0 6.0 0.01 0.38 0.28 78 1014.5
20190116120034 33 267 2.0 5.0 0.01 0.38 0.28 77 1014.5
20190116115031 33 267 4.0 12.0 0.02 0.38 0.28 77 1014.5
20190116114028 33 272 3.0 9.0 0.01 0.37 0.27 77 1014.5
20190116113025 33 306 6.0 10.0 0.02 0.37 0.27 78 1014.5
20190116112022 33 278 5.0 9.0 0.02 0.37 0.27 79 1014.5
20190116111018 33 290 3.0 8.0 0.03 0.37 0.27 79 1014.5
20190116110016 33 282 4.0 9.0 0.03 0.37 0.27 79 1014.5
20190116105113 33 313 5.0 9.0 0.02 0.36 0.25 80 1014.5
20190116104110 33 266 3.0 7.0 0.02 0.36 0.25 82 1014.5
20190116103107 33 271 3.0 7.0 0.01 0.35 0.24 83 1014.5
20190116102103 33 311 4.0 10.0 0.01 0.35 0.24 83 1014.5
20190116101100 33 300 6.0 15.0 0.00 0.34 0.23 83 1014.5
20190116100057 33 315 8.0 16.0 0.00 0.34 0.23 83 1014.5
20190116095054 33 308 6.0 12.0 0.00 0.35 0.23 84 1014.5
20190116094051 33 276 7.0 13.0 0.00 0.35 0.23 84 1014.5
20190116093048 33 236 5.0 12.0 0.00 0.35 0.23 85 1014.5
20190116092045 33 278 7.0 12.0 0.00 0.35 0.23 86 1014.5
20190116091042 33 278 6.0 12.0 0.00 0.35 0.23 88 1014.5
20190116090039 33 270 6.0 9.0 0.00 0.35 0.23 88 1014.5
20190116085036 33 241 5.0 9.0 0.00 0.35 0.23 89 1014.5
20190116084033 33 276 6.0 9.0 0.00 0.35 0.23 90 1014.5
20190116083030 33 270 4.0 9.0 0.00 0.35 0.23 90 1014.5
20190116082026 33 264 2.0 9.0 0.00 0.35 0.23 90 1014.5
20190116081023 33 236 3.0 9.0 0.00 0.35 0.23 90 1014.5
20190116080020 33 278 4.0 9.0 0.00 0.35 0.23 91 1014.5
20190116075017 32 268 3.0 7.0 0.00 0.35 0.23 90 1014.5
20190116074114 32 285 3.0 9.0 0.00 0.35 0.23 90 1014.5
20190116073111 32 284 4.0 7.0 0.00 0.35 0.23 90 1014.5
20190116072108 32 288 3.0 8.0 0.00 0.35 0.23 90 1014.5
20190116071105 32 309 4.0 8.0 0.00 0.35 0.23 90 1014.5
20190116070102 32 305 3.0 6.0 0.00 0.35 0.23 90 1014.5
20190116065059 32 290 3.0 7.0 0.00 0.35 0.23 90 1014.5
20190116064055 32 264 4.0 9.0 0.00 0.35 0.23 90 1014.5
20190116063052 32 262 5.0 9.0 0.00 0.35 0.23 91 1014.5
20190116062049 32 320 7.0 13.0 0.00 0.35 0.23 91 1014.5
20190116061046 32 267 7.0 12.0 0.00 0.35 0.23 91 1014.5
20190116060043 32 283 7.0 12.0 0.00 0.35 0.23 91 1014.5
20190116055040 32 254 6.0 10.0 0.00 0.35 0.23 91 1014.5
20190116054037 32 271 6.0 10.0 0.00 0.35 0.23 91 1014.5
20190116053034 32 300 5.0 12.0 0.00 0.35 0.23 91 1014.5
20190116052031 32 308 6.0 12.0 0.00 0.35 0.23 91 1014.5
20190116051028 32 295 7.0 13.0 0.00 0.35 0.23 91 1014.5
20190116050025 32 285 6.0 12.0 0.00 0.35 0.23 91 1014.5
20190116045022 32 316 5.0 11.0 0.00 0.35 0.23 91 1014.5
20190116044019 32 327 4.0 12.0 0.00 0.35 0.23 91 1014.5
20190116043015 32 289 5.0 10.0 0.00 0.35 0.23 91 1014.5
20190116042112 32 293 6.0 10.0 0.00 0.35 0.23 90 1014.5
20190116041110 33 326 8.0 14.0 0.01 0.35 0.23 90 1014.5
20190116040106 33 292 7.0 15.0 0.01 0.35 0.23 90 1014.5
20190116035103 33 286 7.0 12.0 0.01 0.35 0.23 90 1014.5
20190116034100 34 276 7.0 14.0 0.02 0.35 0.23 90 1014.5
20190116033057 34 295 8.0 15.0 0.02 0.35 0.23 90 1014.5
20190116032054 35 244 8.0 14.0 0.03 0.35 0.23 90 1014.5
20190116031051 37 269 9.0 18.0 0.02 0.34 0.22 92 1014.5
20190116030048 38 332 9.0 15.0 0.03 0.34 0.22 95 1014.5
20190116025045 39 278 8.0 15.0 0.04 0.34 0.22 95 1014.5
20190116024042 41 305 7.0 15.0 0.04 0.33 0.21 95 1014.5
20190116023039 42 310 6.0 12.0 0.05 0.33 0.21 95 1014.5
20190116022035 42 230 2.0 4.0 0.05 0.31 0.20 95 1014.5
20190116021032 41 206 2.0 6.0 0.05 0.31 0.20 95 1014.5
20190116020029 41 87 1.0 6.0 0.04 0.30 0.18 95 1014.5
20190116015026 41 130 3.0 10.0 0.04 0.29 0.17 95 1014.5
20190116014022 41 135 2.0 5.0 0.03 0.28 0.16 95 1014.5
20190116013019 41 96 3.0 9.0 0.02 0.27 0.15 95 1014.5
20190116012016 41 86 5.0 12.0 0.02 0.25 0.14 95 1014.5
20190116011113 41 109 5.0 9.0 0.02 0.25 0.14 95 1014.5
20190116010110 41 97 4.0 8.0 0.02 0.25 0.14 95 1014.5
20190116005107 41 89 5.0 11.0 0.02 0.24 0.12 95 1014.5
20190116004104 42 86 5.0 9.0 0.02 0.24 0.12 95 1014.5
20190116003101 42 118 1.0 10.0 0.03 0.24 0.12 95 1014.5
20190116002058 42 77 1.0 5.0 0.02 0.23 0.11 94 1014.5
20190116001055 42 73 1.0 3.0 0.03 0.23 0.11 94 1014.5
20190116000053 43 135 0.0 2.0 0.03 0.23 0.11 94 1014.5
20190115235049 43 270 0.0 1.0 0.03 0.22 0.10 94 1014.5
20190115234046 42 94 0.0 2.0 0.03 0.22 0.10 94 1014.5
20190115233043 42 180 0.0 1.0 0.03 0.21 0.09 94 1014.5
20190115232040 42 0 0.0 1.0 0.03 0.21 0.09 94 1014.5
20190115231037 42 0.0 0.0 0.03 0.21 0.08 94 1014.5
20190115230034 42 0.0 0.0 0.03 0.21 0.08 94 1014.5
20190115225030 42 0.0 0.0 0.02 0.21 0.07 94 1014.5
20190115224028 42 90 0.0 1.0 0.03 0.22 0.07 94 1014.5
20190115223024 42 50 0.0 2.0 0.03 0.21 0.05 93 1014.5
20190115222021 42 45 0.0 1.0 0.04 0.21 0.05 94 1014.5
20190115221018 42 54 0.0 3.0 0.04 0.20 0.04 94 1014.5
20190115220017 42 51 1.0 3.0 0.04 0.20 0.04 94 1014.5
20190115215112 42 45 0.0 3.0 0.05 0.20 0.04 94 1014.5
20190115214109 42 30 0.0 2.0 0.05 0.18 0.03 94 1014.5
20190115213035 42 72 1.0 5.0 0.04 0.17 0.02 94 1014.5
20190115212032 42 68 2.0 4.0 0.05 0.16 0.01 94 1014.5
20190115211029 42 103 2.0 6.0 0.04 0.15 0.00 94 1014.5
20190115210025 42 73 4.0 9.0 0.05 0.15 0.00 93 1014.5
20190115205022 43 61 6.0 12.0 0.04 0.16 0.15 93 1014.5
20190115204019 43 103 2.0 6.0 0.03 0.15 0.14 93 1014.5
20190115203016 43 73 2.0 5.0 0.03 0.15 0.14 93 1014.5
20190115202114 43 82 2.0 5.0 0.01 0.12 0.11 93 1014.5
20190115201111 42 84 0.0 3.0 0.01 0.12 0.11 92 1014.5
20190115200107 42 79 0.0 2.0 0.00 0.12 0.10 93 1014.5
20190115195105 42 45 0.0 1.0 0.00 0.14 0.10 93 1014.5
20190115194101 42 0.0 0.0 0.01 0.15 0.10 93 1014.5
20190115193058 42 0.0 0.0 0.01 0.17 0.10 92 1014.5
20190115192054 42 0 0.0 1.0 0.01 0.17 0.10 92 1014.5
20190115191052 42 17 0.0 2.0 0.02 0.17 0.10 91 1014.5
20190115190049 42 55 1.0 4.0 0.02 0.17 0.10 91 1014.5
20190115185046 42 76 1.0 4.0 0.02 0.17 0.10 91 1014.5
20190115184043 42 36 0.0 3.0 0.01 0.17 0.09 91 1014.5
20190115183039 42 56 2.0 5.0 0.02 0.17 0.09 90 1014.5
20190115182036 42 78 2.0 4.0 0.02 0.17 0.09 90 1014.5
20190115181033 43 94 1.0 3.0 0.01 0.16 0.08 90 1014.5
20190115180030 43 70 2.0 4.0 0.01 0.16 0.08 89 1014.5
20190115175027 43 79 2.0 5.0 0.02 0.16 0.08 89 1014.5
20190115174024 43 91 2.0 5.0 0.02 0.16 0.08 89 1014.5
20190115173021 43 84 2.0 4.0 0.01 0.15 0.07 88 1014.5
20190115172018 43 56 0.0 4.0 0.01 0.15 0.07 88 1014.5
20190115171015 43 95 1.0 4.0 0.01 0.15 0.07 87 1014.5
20190115170112 44 76 2.0 4.0 0.01 0.15 0.07 87 1014.5
20190115165109 44 93 2.0 7.0 0.00 0.14 0.05 87 1014.5
20190115164106 44 89 2.0 6.0 0.00 0.14 0.05 87 1014.5
20190115163102 44 118 1.0 5.0 0.00 0.14 0.05 87 1014.5
20190115162059 44 68 2.0 7.0 0.00 0.14 0.05 86 1014.5
20190115161056 44 51 2.0 5.0 0.00 0.14 0.05 85 1014.5
20190115160053 44 69 3.0 9.0 0.00 0.14 0.05 86 1014.5